Aviation Digital Data Service (ADDS)

Output produced by METARs form (1703 UTC 20 January 2019)
found at http://www.aviationweather.gov/metar/data/
 
KOAJ 201144Z 2012/2112 22013G21KT P6SM -SHRA SCT006 OVC015 
     FM201300 23012G19KT P6SM VCSH SCT006 BKN025 
     FM201500 26012G21KT P6SM VCSH BKN040 
     TEMPO 2015/2018 BKN025 
     FM202100 31015G26KT P6SM BKN120 AMD LTD TO CLD VIS AND WIND
       
KOAK 201133Z 2012/2118 14004KT P6SM VCSH BKN020 BKN030 OVC050 
     FM201600 17008KT 6SM -RA BR SCT015 OVC025 
     FM202100 24016G20KT 5SM -SHRA SCT015 OVC030 
     FM210200 25020G30KT 5SM -SHRA BKN015 OVC030 
     FM210800 27015KT P6SM SCT050 BKN100 
     TEMPO 2108/2112 -RA BKN050
       
TAF AMD KOFF 201646Z 2016/2116 12009KT 4800 -SN BR OVC012 620123 510202
QNH3026INS 
     TEMPO 2016/2019 2200 
     BECMG 2019/2020 11012G18KT 9999 NSW SCT010 OVC030 620301 510106 QNH3020INS 
     BECMG 2111/2112 13012G18KT 9999 OVC010 620106 510106 QNH2998INS TXM09/2021Z
TNM14/2016Z
       
KOFK 201126Z 2012/2112 12011KT P6SM VCSH BKN030 OVC090 
     FM201400 11012KT P6SM OVC050 
     FM201500 12010KT P6SM OVC015 
     FM211100 14015G21KT P6SM OVC025
       
KOGB 201510Z 2015/2112 28017G27KT P6SM SCT035 
     FM201700 29016G26KT P6SM SCT040 
     FM202300 30012KT P6SM SKC 
     FM210500 30005KT P6SM SKC
       
KOGD 201137Z 2012/2112 17006KT P6SM SCT050 BKN200 
     FM210600 17010KT P6SM VCSH SCT010 BKN040
       
KOKC 201128Z 2012/2112 23005KT P6SM SCT250 
     FM201700 19012KT P6SM BKN250 
     FM210200 15010KT P6SM BKN250
       
KOLF 201121Z 2012/2112 VRB06KT P6SM SCT050 BKN100 
     FM210400 07009KT P6SM VCSH SCT015 BKN030 
     FM210700 07010KT 2SM -SN BKN008
       
KOLM 201500Z 2015/2112 36004KT P6SM OVC003 
     FM201800 36004KT P6SM SCT003 OVC005 
     FM202100 VRB03KT P6SM BKN080 OVC200 
     FM210300 VRB03KT P6SM SCT080 BKN200 
     FM210800 00000KT 1/2SM FG VV001
       
KOLS 201137Z 2012/2112 05007KT P6SM BKN250 
     FM202000 20006KT P6SM BKN250 
     FM210200 15006KT P6SM SCT250
       
KOMA 201625Z 2016/2112 14009KT P6SM -SN OVC040 
     TEMPO 2016/2018 2SM -SN OVC025 
     FM201800 10011KT P6SM OVC050 
     FM210100 10010KT P6SM OVC025 
     FM210600 12012KT P6SM OVC050
       
KONP 201644Z 2017/2112 VRB04KT 4SM -RA BR SCT009 BKN035 OVC050 
     FM201800 11005KT 3SM -RA BR SCT005 OVC011 
     FM210200 VRB05KT P6SM BKN012 OVC025 
     FM210700 09005KT P6SM SCT015 BKN025 OVC040
       
KONT 201137Z 2012/2118 06003KT P6SM BKN250 
     FM202200 26011KT P6SM SCT250 
     FM210800 26008KT P6SM BKN015 
     FM211600 VRB05KT P6SM SCT025
       
KOPF 201511Z 2015/2112 28014KT P6SM VCSH BKN015 BKN025 
     FM201600 28016KT P6SM SCT020 BKN025 
     FM210000 31010KT P6SM FEW100 SCT240
       
KORD 201507Z 2015/2118 34011G16KT P6SM FEW030 
     FM210100 35008KT P6SM VCSH SCT025 BKN035 
     FM210800 04003KT P6SM SCT035 SCT250 
     FM211400 14006KT P6SM SCT035 SCT250
       
KORF 201307Z 2013/2112 22014G22KT P6SM VCSH SCT025 OVC040 
     TEMPO 2013/2014 22020G30KT 
     FM201500 27012G20KT P6SM BKN035 OVC050 
     FM201700 32020G30KT P6SM BKN050 
     FM202000 33024G35KT P6SM BKN060 
     FM210200 33020G30KT P6SM SCT120
       
KORH 201136Z 2012/2112 06011G20KT 1/2SM FZRA FZFG OVC003 
     FM201500 02010KT 1SM -FZRA OVC003 
     FM201700 02010KT 1SM FZRA BR OVC003 
     FM202200 33011G19KT 1SM BR VCSH OVC003 
     FM210200 31014G23KT P6SM BKN015 
     FM210300 31014G22KT P6SM SCT035 
     FM210700 31015G24KT P6SM FEW045
       
KOTH 201356Z 2014/2112 32005KT P6SM -RA OVC035 
     FM201900 18007KT 5SM -SHRA SCT015 BKN020 OVC030 
     FM210100 21008KT P6SM VCSH BKN025 OVC040 
     FM210600 16006KT P6SM -SHRA SCT025 OVC035
       
KOTM 201620Z 2016/2112 03005KT 3SM -SN SCT025 OVC040 
     TEMPO 2016/2020 1SM -SN OVC022 
     FM202100 03006KT P6SM VCSH BKN035 
     FM210200 05006KT P6SM SCT090 
     FM211000 11011KT P6SM OVC080
       
KOUN 201128Z 2012/2112 23004KT P6SM SCT250 
     FM201700 18011KT P6SM BKN250 
     FM210200 15009KT P6SM BKN250
       
KOWB 201423Z 2014/2112 33012G22KT P6SM SCT015 BKN030 
     TEMPO 2014/2016 -SN OVC015 
     FM201600 34011G18KT P6SM BKN150 
     FM202300 34007KT P6SM OVC035 
     FM210600 VRB04KT P6SM SCT070
       
KOXR 201140Z 2012/2112 04008KT P6SM BKN200 
     FM202000 28012KT P6SM BKN200 
     FM210300 28015KT P6SM OVC015 
     FM210800 29012G20KT P6SM SCT020 BKN120